createdAt,value
2019-05-05T00:01:45.029Z,6.30
2019-05-05T00:04:25.287Z,6.30
2019-05-05T00:06:56.930Z,6.40
2019-05-05T00:09:28.827Z,6.50
2019-05-05T00:12:30.308Z,6.50
2019-05-05T00:15:28.348Z,6.60
2019-05-05T00:17:58.976Z,6.70
2019-05-05T00:20:29.165Z,6.70
2019-05-05T00:22:59.326Z,6.70
2019-05-05T00:25:29.715Z,6.80
2019-05-05T00:27:59.903Z,6.80
2019-05-05T00:30:30.687Z,6.70
2019-05-05T00:33:00.886Z,6.70
2019-05-05T00:35:31.087Z,6.70
2019-05-05T00:38:01.261Z,6.60
2019-05-05T00:40:31.767Z,6.50
2019-05-05T00:43:01.951Z,6.60
2019-05-05T00:45:34.400Z,6.50
2019-05-05T00:48:15.339Z,6.50
2019-05-05T00:50:46.795Z,6.40
2019-05-05T00:53:16.981Z,6.50
2019-05-05T00:55:47.170Z,6.60
2019-05-05T00:58:17.392Z,6.60
2019-05-05T01:00:57.218Z,6.70
2019-05-05T01:03:28.088Z,6.60
2019-05-05T01:06:07.208Z,6.50
2019-05-05T01:08:37.339Z,6.50
2019-05-05T01:11:07.769Z,6.50
2019-05-05T01:13:37.956Z,6.40
2019-05-05T01:16:08.209Z,6.40
2019-05-05T01:18:38.886Z,6.40
2019-05-05T01:21:11.134Z,6.40
2019-05-05T01:23:41.783Z,6.40
2019-05-05T01:26:14.251Z,6.50
2019-05-05T01:28:44.702Z,6.50
2019-05-05T01:31:17.825Z,6.60
2019-05-05T01:34:12.169Z,6.60
2019-05-05T01:36:45.000Z,6.60
2019-05-05T01:39:22.053Z,6.60
2019-05-05T01:41:55.673Z,6.50
2019-05-05T01:44:25.946Z,6.40
2019-05-05T01:46:56.212Z,6.30
2019-05-05T01:49:27.987Z,6.30
2019-05-05T01:51:58.569Z,6.20
2019-05-05T01:54:29.085Z,6.30
2019-05-05T01:56:59.585Z,6.40
2019-05-05T01:59:30.011Z,6.40
2019-05-05T02:02:01.153Z,6.30
2019-05-05T02:04:31.769Z,6.30
2019-05-05T02:07:01.881Z,6.20
2019-05-05T02:09:32.037Z,6.10
2019-05-05T02:12:04.994Z,6.10
2019-05-05T02:14:35.294Z,6.00
2019-05-05T02:17:05.689Z,6.00
2019-05-05T02:19:36.302Z,6.00
2019-05-05T02:22:06.810Z,5.90
2019-05-05T02:24:36.959Z,5.80
2019-05-05T02:27:07.265Z,5.80
2019-05-05T02:29:44.549Z,5.70
2019-05-05T02:32:36.046Z,5.70
2019-05-05T02:35:08.528Z,5.70
2019-05-05T02:37:38.713Z,5.60
2019-05-05T02:40:10.026Z,5.60
2019-05-05T02:42:45.589Z,5.60
2019-05-05T02:45:31.352Z,5.60
2019-05-05T02:48:15.687Z,5.60
2019-05-05T02:51:02.769Z,5.50
2019-05-05T02:53:36.973Z,5.60
2019-05-05T02:56:14.507Z,5.50
2019-05-05T02:58:45.305Z,5.60
2019-05-05T03:01:34.629Z,5.60
2019-05-05T03:04:06.104Z,5.70
2019-05-05T03:06:39.382Z,5.80
2019-05-05T03:09:09.536Z,5.90
2019-05-05T03:11:43.619Z,5.90
2019-05-05T03:14:15.180Z,6.00
2019-05-05T03:16:45.594Z,6.00
2019-05-05T03:19:16.406Z,6.00
2019-05-05T03:21:46.649Z,5.90
2019-05-05T03:24:17.048Z,6.00
2019-05-05T03:26:48.722Z,5.90
2019-05-05T03:29:20.979Z,5.90
2019-05-05T03:31:51.649Z,6.00
2019-05-05T03:34:23.979Z,6.00
2019-05-05T03:36:54.770Z,5.90
2019-05-05T03:39:26.570Z,6.00
2019-05-05T03:42:19.736Z,5.90
2019-05-05T03:44:54.499Z,6.00
2019-05-05T03:47:25.428Z,6.00
2019-05-05T03:49:56.162Z,6.10
2019-05-05T03:52:26.571Z,6.10
2019-05-05T03:54:57.253Z,6.20
2019-05-05T03:57:27.407Z,6.20
2019-05-05T03:59:59.019Z,6.20
2019-05-05T04:02:57.722Z,6.20
2019-05-05T04:05:38.220Z,6.30
2019-05-05T04:08:08.412Z,6.40
2019-05-05T04:10:39.363Z,6.50
2019-05-05T04:13:09.513Z,6.50
2019-05-05T04:15:41.596Z,6.50
2019-05-05T04:18:16.981Z,6.50
2019-05-05T04:20:47.196Z,6.50
2019-05-05T04:23:17.636Z,6.50
2019-05-05T04:25:48.177Z,6.50
2019-05-05T04:28:18.343Z,6.60
2019-05-05T04:30:48.550Z,6.60
2019-05-05T04:33:18.741Z,6.60
2019-05-05T04:35:49.149Z,6.60
2019-05-05T04:38:19.316Z,6.70
2019-05-05T04:40:49.837Z,6.70
2019-05-05T04:43:20.025Z,6.80
2019-05-05T04:45:50.243Z,6.80
2019-05-05T04:48:34.506Z,6.90
2019-05-05T04:51:13.915Z,7.00
2019-05-05T04:54:14.067Z,7.00
2019-05-05T04:56:44.815Z,7.00
2019-05-05T04:59:15.527Z,7.00
2019-05-05T05:01:46.739Z,7.00
2019-05-05T05:04:24.290Z,7.10
2019-05-05T05:06:56.541Z,7.20
2019-05-05T05:09:26.669Z,7.10
2019-05-05T05:11:56.958Z,7.00
2019-05-05T05:14:27.498Z,7.10
2019-05-05T05:16:59.305Z,7.10
2019-05-05T05:19:29.869Z,7.10
2019-05-05T05:22:02.126Z,7.10
2019-05-05T05:24:34.145Z,7.00
2019-05-05T05:27:05.065Z,6.90
2019-05-05T05:29:35.705Z,6.90
2019-05-05T05:32:06.247Z,6.80
2019-05-05T05:34:36.406Z,6.80
2019-05-05T05:37:06.585Z,6.90
2019-05-05T05:39:44.024Z,6.90
2019-05-05T05:42:15.280Z,7.00
2019-05-05T05:45:05.107Z,7.00
2019-05-05T05:48:06.559Z,7.00
2019-05-05T05:50:41.185Z,7.10
2019-05-05T05:53:11.487Z,7.20
2019-05-05T05:55:42.351Z,7.10
2019-05-05T05:58:14.112Z,7.10
2019-05-05T06:00:44.574Z,6.90
2019-05-05T06:03:14.798Z,6.80
2019-05-05T06:05:45.272Z,6.70
2019-05-05T06:08:16.124Z,6.90
2019-05-05T06:10:46.351Z,7.10
2019-05-05T06:13:17.375Z,7.40
2019-05-05T06:15:47.741Z,7.70
2019-05-05T06:18:18.027Z,7.90
2019-05-05T06:20:48.204Z,8.10
2019-05-05T06:23:19.939Z,8.10
2019-05-05T06:25:50.106Z,8.10
2019-05-05T06:28:20.667Z,8.10
2019-05-05T06:30:50.849Z,8.20
2019-05-05T06:33:21.009Z,8.30
2019-05-05T06:35:53.560Z,8.20
2019-05-05T06:38:24.878Z,8.20
2019-05-05T06:41:14.698Z,8.30
2019-05-05T06:44:10.447Z,8.50
2019-05-05T06:47:17.879Z,8.50
2019-05-05T06:49:48.113Z,8.60
2019-05-05T06:52:18.305Z,8.70
2019-05-05T06:54:48.552Z,8.70
2019-05-05T06:57:18.774Z,8.70
2019-05-05T06:59:49.362Z,8.80
2019-05-05T07:02:20.016Z,8.90
2019-05-05T07:04:50.227Z,9.10
2019-05-05T07:07:20.857Z,9.30
2019-05-05T07:09:54.159Z,9.40
2019-05-05T07:12:24.236Z,9.50
2019-05-05T07:14:56.025Z,9.50
2019-05-05T07:17:26.189Z,9.60
2019-05-05T07:19:57.080Z,9.50
2019-05-05T07:22:27.251Z,9.50
2019-05-05T07:24:57.516Z,9.60
2019-05-05T07:27:27.654Z,9.60
2019-05-05T07:29:58.262Z,9.70
2019-05-05T07:32:28.768Z,9.50
2019-05-05T07:35:11.002Z,9.10
2019-05-05T07:37:41.127Z,8.80
2019-05-05T07:40:13.561Z,8.70
2019-05-05T07:42:44.252Z,8.70
2019-05-05T07:45:22.539Z,8.80
2019-05-05T07:47:47.708Z,8.90
2019-05-05T07:50:28.920Z,9.10
2019-05-05T07:52:49.985Z,9.30
2019-05-05T07:55:20.210Z,9.80
2019-05-05T07:57:50.482Z,9.80
2019-05-05T08:00:21.101Z,9.70
2019-05-05T08:02:51.835Z,9.60
2019-05-05T08:05:22.038Z,9.50
2019-05-05T08:07:53.921Z,8.90
2019-05-05T08:10:24.276Z,7.90
2019-05-05T08:12:54.845Z,7.10
2019-05-05T08:15:26.569Z,6.80
2019-05-05T08:18:07.426Z,6.50
2019-05-05T08:20:40.887Z,6.50
2019-05-05T08:23:29.095Z,6.60
2019-05-05T08:26:14.204Z,6.70
2019-05-05T08:28:58.102Z,6.90
2019-05-05T08:31:47.243Z,7.10
2019-05-05T08:34:17.422Z,7.40
2019-05-05T08:36:47.682Z,7.80
2019-05-05T08:39:21.427Z,8.40
2019-05-05T08:41:51.241Z,8.80
2019-05-05T08:44:23.536Z,8.90
2019-05-05T08:46:53.894Z,8.70
2019-05-05T08:49:24.521Z,8.70
2019-05-05T08:51:56.517Z,8.70
2019-05-05T08:54:27.113Z,8.80
2019-05-05T08:56:57.286Z,8.80
2019-05-05T08:59:27.519Z,9.00
2019-05-05T09:01:57.722Z,9.40
2019-05-05T09:04:27.958Z,9.60
2019-05-05T09:06:58.107Z,9.70
2019-05-05T09:09:28.293Z,9.80
2019-05-05T09:11:59.121Z,10.00
2019-05-05T09:14:29.340Z,10.30
2019-05-05T09:16:59.647Z,10.40
2019-05-05T09:19:29.959Z,10.70
2019-05-05T09:22:00.495Z,10.80
2019-05-05T09:24:36.127Z,11.00
2019-05-05T09:27:11.652Z,11.20
2019-05-05T09:29:43.972Z,11.40
2019-05-05T09:32:14.432Z,11.50
2019-05-05T09:34:44.679Z,11.60
2019-05-05T09:37:14.917Z,11.70
2019-05-05T09:39:45.112Z,12.00
2019-05-05T09:42:15.304Z,12.10
2019-05-05T09:44:45.526Z,11.80
2019-05-05T09:47:15.838Z,11.60
2019-05-05T09:49:46.399Z,11.90
2019-05-05T09:52:17.118Z,12.10
2019-05-05T09:54:47.425Z,12.50
2019-05-05T09:57:18.257Z,12.60
2019-05-05T09:59:48.545Z,12.20
2019-05-05T10:02:19.164Z,11.40
2019-05-05T10:04:49.662Z,10.70
2019-05-05T10:07:19.873Z,10.40
2019-05-05T10:09:50.066Z,10.40
2019-05-05T10:12:20.653Z,10.40
2019-05-05T10:14:50.833Z,10.40
2019-05-05T10:17:21.070Z,10.40
2019-05-05T10:19:51.317Z,10.40
2019-05-05T10:22:23.774Z,10.00
2019-05-05T10:25:13.263Z,9.70
2019-05-05T10:27:47.447Z,9.70
2019-05-05T10:30:16.243Z,9.90
2019-05-05T10:32:46.552Z,10.00
2019-05-05T10:35:18.977Z,10.50
2019-05-05T10:37:49.488Z,11.00
2019-05-05T10:40:23.690Z,10.50
2019-05-05T10:42:54.158Z,9.70
2019-05-05T10:45:24.850Z,9.30
2019-05-05T10:47:55.518Z,9.30
2019-05-05T10:50:25.689Z,9.50
2019-05-05T10:52:56.005Z,10.10
2019-05-05T10:55:26.383Z,11.00
2019-05-05T10:57:56.607Z,11.40
2019-05-05T11:00:44.796Z,11.10
2019-05-05T11:03:15.388Z,10.50
2019-05-05T11:05:46.168Z,9.80
2019-05-05T11:08:16.853Z,9.20
2019-05-05T11:10:47.500Z,8.90
2019-05-05T11:13:18.140Z,8.80
2019-05-05T11:15:48.426Z,9.00
2019-05-05T11:18:18.777Z,9.30
2019-05-05T11:20:48.943Z,9.60
2019-05-05T11:23:19.220Z,10.00
2019-05-05T11:25:49.536Z,10.20
2019-05-05T11:28:19.948Z,10.50
2019-05-05T11:30:50.155Z,10.80
2019-05-05T11:33:54.811Z,11.20
2019-05-05T11:36:46.836Z,11.70
2019-05-05T11:39:17.056Z,12.00
2019-05-05T11:41:47.255Z,12.40
2019-05-05T11:44:17.429Z,12.30
2019-05-05T11:46:47.666Z,12.30
2019-05-05T11:49:17.869Z,12.50
2019-05-05T11:51:48.061Z,12.50
2019-05-05T11:54:18.309Z,12.50
2019-05-05T11:56:48.523Z,12.20
2019-05-05T11:59:18.878Z,11.90
2019-05-05T12:01:49.147Z,11.80
2019-05-05T12:04:19.462Z,12.00
2019-05-05T12:06:49.621Z,12.30
2019-05-05T12:09:29.142Z,12.70
2019-05-05T12:11:59.301Z,12.90
2019-05-05T12:14:31.115Z,12.90
2019-05-05T12:17:01.296Z,13.00
2019-05-05T12:19:33.524Z,13.00
2019-05-05T12:22:03.557Z,12.90
2019-05-05T12:24:36.798Z,12.80
2019-05-05T12:27:41.351Z,12.70
2019-05-05T12:30:14.189Z,12.50
2019-05-05T12:32:44.777Z,12.40
2019-05-05T12:35:15.144Z,12.60
2019-05-05T12:37:45.407Z,12.80
2019-05-05T12:40:15.616Z,12.90
2019-05-05T12:42:45.792Z,12.90
2019-05-05T12:45:20.256Z,12.70
2019-05-05T12:48:27.604Z,12.60
2019-05-05T12:50:57.821Z,12.60
2019-05-05T12:53:28.169Z,12.30
2019-05-05T12:55:58.435Z,12.20
2019-05-05T12:58:28.759Z,12.60
2019-05-05T13:01:14.150Z,12.90
2019-05-05T13:03:43.835Z,13.10
2019-05-05T13:06:14.704Z,13.40
2019-05-05T13:08:45.078Z,13.60
2019-05-05T13:11:15.295Z,13.60
2019-05-05T13:13:45.956Z,13.20
2019-05-05T13:16:16.175Z,12.90
2019-05-05T13:18:46.369Z,13.20
2019-05-05T13:21:34.771Z,13.60
2019-05-05T13:24:23.817Z,13.90
2019-05-05T13:27:08.713Z,13.30
2019-05-05T13:29:34.649Z,12.90
2019-05-05T13:32:04.925Z,13.10
2019-05-05T13:34:35.997Z,12.50
2019-05-05T13:37:06.463Z,12.10
2019-05-05T13:39:36.677Z,12.30
2019-05-05T13:42:07.944Z,12.50
2019-05-05T13:45:14.462Z,12.00
2019-05-05T13:47:44.649Z,11.40
2019-05-05T13:50:19.471Z,10.90
2019-05-05T13:52:49.868Z,11.20
2019-05-05T13:55:20.215Z,12.00
2019-05-05T13:57:50.948Z,12.50
2019-05-05T14:00:21.945Z,13.50
2019-05-05T14:02:54.379Z,14.20
2019-05-05T14:05:24.347Z,14.30
2019-05-05T14:07:55.924Z,14.20
2019-05-05T14:10:26.351Z,14.10
2019-05-05T14:12:57.064Z,13.50
2019-05-05T14:15:27.509Z,13.20
2019-05-05T14:17:58.165Z,13.00
2019-05-05T14:20:28.713Z,13.00
2019-05-05T14:22:59.700Z,13.00
2019-05-05T14:25:30.779Z,12.90
2019-05-05T14:28:03.524Z,13.60
2019-05-05T14:31:00.326Z,14.40
2019-05-05T14:33:34.481Z,14.10
2019-05-05T14:36:33.539Z,14.00
2019-05-05T14:39:06.434Z,14.90
2019-05-05T14:41:38.266Z,14.90
2019-05-05T14:44:08.540Z,15.30
2019-05-05T14:46:38.990Z,15.20
2019-05-05T14:49:09.595Z,14.00
2019-05-05T14:51:40.008Z,13.00
2019-05-05T14:54:10.985Z,12.40
2019-05-05T14:56:41.155Z,12.30
2019-05-05T14:59:11.325Z,12.40
2019-05-05T15:01:41.559Z,12.80
2019-05-05T15:04:13.456Z,13.50
2019-05-05T15:06:47.870Z,13.90
2019-05-05T15:09:36.360Z,13.80
2019-05-05T15:12:40.937Z,13.40
2019-05-05T15:15:11.683Z,12.90
2019-05-05T15:17:41.888Z,12.60
2019-05-05T15:20:14.000Z,12.80
2019-05-05T15:22:44.682Z,13.80
2019-05-05T15:25:14.997Z,15.60
2019-05-05T15:27:45.204Z,16.10
2019-05-05T15:30:17.128Z,16.80
2019-05-05T15:32:47.375Z,17.40
2019-05-05T15:35:17.664Z,17.60
2019-05-05T15:37:47.962Z,16.50
2019-05-05T15:40:18.254Z,14.40
2019-05-05T15:42:48.735Z,13.00
2019-05-05T15:45:19.131Z,12.40
2019-05-05T15:47:49.384Z,13.80
2019-05-05T15:50:19.818Z,13.80
2019-05-05T15:52:50.016Z,12.90
2019-05-05T15:55:20.313Z,12.30
2019-05-05T15:57:50.556Z,11.60
2019-05-05T16:00:21.140Z,11.20
2019-05-05T16:02:51.402Z,10.80
2019-05-05T16:05:21.726Z,10.40
2019-05-05T16:07:54.159Z,10.40
2019-05-05T16:10:25.240Z,11.00
2019-05-05T16:12:57.054Z,13.10
2019-05-05T16:15:49.539Z,15.40
2019-05-05T16:18:31.142Z,16.90
2019-05-05T16:21:18.736Z,17.40
2019-05-05T16:23:54.178Z,17.70
2019-05-05T16:26:25.988Z,17.50
2019-05-05T16:28:56.500Z,17.70
2019-05-05T16:31:27.743Z,18.10
2019-05-05T16:33:58.055Z,17.70
2019-05-05T16:36:30.732Z,18.20
2019-05-05T16:39:01.008Z,18.70
2019-05-05T16:41:34.094Z,18.90
2019-05-05T16:44:05.397Z,18.50
2019-05-05T16:46:35.616Z,16.90
2019-05-05T16:49:07.594Z,14.50
2019-05-05T16:51:43.778Z,13.50
2019-05-05T16:54:19.996Z,14.90
2019-05-05T16:56:50.260Z,16.10
2019-05-05T16:59:23.617Z,16.60
2019-05-05T17:01:54.098Z,17.00
2019-05-05T17:04:24.516Z,17.40
2019-05-05T17:06:54.885Z,17.40
2019-05-05T17:09:25.426Z,17.40
2019-05-05T17:12:10.836Z,17.50
2019-05-05T17:15:02.014Z,17.60
2019-05-05T17:17:57.260Z,17.30
2019-05-05T17:20:28.844Z,16.80
2019-05-05T17:23:04.615Z,15.90
2019-05-05T17:25:34.968Z,15.10
2019-05-05T17:28:05.285Z,14.50
2019-05-05T17:30:35.549Z,14.50
2019-05-05T17:33:06.019Z,14.50
2019-05-05T17:35:36.329Z,13.90
2019-05-05T17:38:13.713Z,13.40
2019-05-05T17:41:03.643Z,14.00
2019-05-05T17:43:54.226Z,15.10
2019-05-05T17:46:29.090Z,14.90
2019-05-05T17:49:18.363Z,13.40
2019-05-05T17:52:10.378Z,12.20
2019-05-05T17:54:45.995Z,11.30
2019-05-05T17:57:16.271Z,10.80
2019-05-05T17:59:46.902Z,10.50
2019-05-05T18:02:17.563Z,10.40
2019-05-05T18:04:47.857Z,10.20
2019-05-05T18:07:35.254Z,10.00
2019-05-05T18:10:17.141Z,9.90
2019-05-05T18:13:13.986Z,9.80
2019-05-05T18:15:50.863Z,9.80
2019-05-05T18:18:23.355Z,9.80
2019-05-05T18:20:54.244Z,9.70
2019-05-05T18:23:24.764Z,9.60
2019-05-05T18:25:55.438Z,9.50
2019-05-05T18:28:25.924Z,9.50
2019-05-05T18:30:56.123Z,9.50
2019-05-05T18:33:26.378Z,9.40
2019-05-05T18:35:56.614Z,9.40
2019-05-05T18:38:27.136Z,9.40
2019-05-05T18:40:59.363Z,9.30
2019-05-05T18:43:39.521Z,9.20
2019-05-05T18:46:09.738Z,9.20
2019-05-05T18:48:39.934Z,9.10
2019-05-05T18:51:10.202Z,9.00
2019-05-05T18:53:40.282Z,9.00
2019-05-05T18:56:10.556Z,9.00
2019-05-05T18:58:41.244Z,8.90
2019-05-05T19:01:18.451Z,9.00
2019-05-05T19:04:07.133Z,8.90
2019-05-05T19:06:49.354Z,8.90
2019-05-05T19:09:21.521Z,8.80
2019-05-05T19:11:51.694Z,8.80
2019-05-05T19:14:23.866Z,8.70
2019-05-05T19:16:55.635Z,8.60
2019-05-05T19:19:27.408Z,8.60
2019-05-05T19:22:04.229Z,8.50
2019-05-05T19:24:35.413Z,8.50
2019-05-05T19:27:06.255Z,8.40
2019-05-05T19:29:36.951Z,8.40
2019-05-05T19:32:07.127Z,8.30
2019-05-05T19:34:37.343Z,8.30
2019-05-05T19:37:07.567Z,8.30
2019-05-05T19:39:37.870Z,8.30
2019-05-05T19:42:08.146Z,8.20
2019-05-05T19:44:38.653Z,8.20
2019-05-05T19:47:18.119Z,8.20
2019-05-05T19:50:03.103Z,8.30
2019-05-05T19:52:34.865Z,8.20
2019-05-05T19:55:05.742Z,8.20
2019-05-05T19:57:38.796Z,8.20
2019-05-05T20:00:09.117Z,8.10
2019-05-05T20:02:39.832Z,8.10
2019-05-05T20:05:10.063Z,8.00
2019-05-05T20:07:41.992Z,7.90
2019-05-05T20:10:14.666Z,7.90
2019-05-05T20:12:47.013Z,7.80
2019-05-05T20:15:24.176Z,7.70
2019-05-05T20:17:54.365Z,7.70
2019-05-05T20:20:24.854Z,7.60
2019-05-05T20:22:55.052Z,7.70
2019-05-05T20:25:25.222Z,7.60
2019-05-05T20:27:56.044Z,7.60
2019-05-05T20:30:26.376Z,7.70
2019-05-05T20:33:03.910Z,7.70
2019-05-05T20:35:41.498Z,7.60
2019-05-05T20:38:20.993Z,7.50
2019-05-05T20:41:08.525Z,7.50
2019-05-05T20:43:38.736Z,7.40
2019-05-05T20:46:09.241Z,7.40
2019-05-05T20:48:41.312Z,7.40
2019-05-05T20:51:13.309Z,7.30
2019-05-05T20:53:48.600Z,7.30
2019-05-05T20:56:17.137Z,7.20
2019-05-05T20:58:47.775Z,7.20
2019-05-05T21:01:17.944Z,7.10
2019-05-05T21:03:48.441Z,7.00
2019-05-05T21:06:18.662Z,6.90
2019-05-05T21:08:49.302Z,6.80
2019-05-05T21:11:19.467Z,6.70
2019-05-05T21:13:49.739Z,6.60
2019-05-05T21:16:20.320Z,6.50
2019-05-05T21:18:50.459Z,6.50
2019-05-05T21:21:24.810Z,6.30
2019-05-05T21:23:57.763Z,6.30
2019-05-05T21:26:51.249Z,6.20
2019-05-05T21:29:23.794Z,6.10
2019-05-05T21:31:54.848Z,6.00
2019-05-05T21:34:25.521Z,6.00
2019-05-05T21:36:56.059Z,5.90
2019-05-05T21:39:29.825Z,5.90
2019-05-05T21:42:05.365Z,5.80
2019-05-05T21:44:38.481Z,5.80
2019-05-05T21:47:14.228Z,5.80
2019-05-05T21:49:46.557Z,5.80
2019-05-05T21:52:40.997Z,5.80
2019-05-05T21:55:25.499Z,5.70
2019-05-05T21:58:08.921Z,5.70
2019-05-05T22:00:57.085Z,5.70
2019-05-05T22:03:34.699Z,5.60
2019-05-05T22:06:06.483Z,5.60
2019-05-05T22:08:36.686Z,5.60
2019-05-05T22:11:07.669Z,5.50
2019-05-05T22:13:37.797Z,5.40
2019-05-05T22:16:08.425Z,5.40
2019-05-05T22:18:38.717Z,5.30
2019-05-05T22:21:18.451Z,5.30
2019-05-05T22:24:06.442Z,5.20
2019-05-05T22:26:36.947Z,5.20
2019-05-05T22:29:07.148Z,5.20
2019-05-05T22:31:37.685Z,5.20
2019-05-05T22:34:07.841Z,5.20
2019-05-05T22:36:38.365Z,5.20
2019-05-05T22:39:09.960Z,5.10
2019-05-05T22:41:40.655Z,5.10
2019-05-05T22:44:10.799Z,5.10
2019-05-05T22:46:41.405Z,5.10
2019-05-05T22:49:11.645Z,5.10
2019-05-05T22:51:44.518Z,5.10
2019-05-05T22:54:14.916Z,5.00
2019-05-05T22:56:45.722Z,5.00
2019-05-05T22:59:15.883Z,5.00
2019-05-05T23:01:46.062Z,4.90
2019-05-05T23:04:26.643Z,4.90
2019-05-05T23:07:00.899Z,4.90
2019-05-05T23:09:31.541Z,4.90
2019-05-05T23:12:04.072Z,4.90
2019-05-05T23:14:34.449Z,4.80
2019-05-05T23:17:12.609Z,4.80
2019-05-05T23:19:47.657Z,4.80
2019-05-05T23:22:34.795Z,4.80
2019-05-05T23:25:18.356Z,4.80
2019-05-05T23:27:49.328Z,4.70
2019-05-05T23:30:23.559Z,4.70
2019-05-05T23:32:54.795Z,4.70
2019-05-05T23:35:25.272Z,4.60
2019-05-05T23:37:55.540Z,4.70
2019-05-05T23:40:26.564Z,4.60
2019-05-05T23:42:56.812Z,4.60
2019-05-05T23:45:27.386Z,4.60
2019-05-05T23:47:57.635Z,4.60
2019-05-05T23:50:27.879Z,4.50
2019-05-05T23:52:58.104Z,4.50
2019-05-05T23:55:28.272Z,4.50
2019-05-05T23:57:58.450Z,4.50
